createdAt,value
2023-12-28T00:07:11.480Z,11.20
2023-12-28T00:17:17.334Z,11.30
2023-12-28T00:27:19.350Z,11.30
2023-12-28T00:37:22.738Z,11.50
2023-12-28T00:47:24.749Z,11.60
2023-12-28T00:57:28.165Z,11.60
2023-12-28T01:07:30.148Z,11.50
2023-12-28T01:17:33.605Z,11.40
2023-12-28T01:27:35.605Z,11.20
2023-12-28T01:37:38.988Z,11.20
2023-12-28T01:47:41.698Z,11.20
2023-12-28T01:57:45.972Z,11.10
2023-12-28T02:07:47.971Z,11.10
2023-12-28T02:17:59.183Z,11.20
2023-12-28T02:28:03.445Z,11.30
2023-12-28T02:38:08.394Z,11.30
2023-12-28T02:48:11.982Z,11.30
2023-12-28T02:58:14.003Z,11.20
2023-12-28T03:08:17.381Z,11.10
2023-12-28T03:18:19.511Z,11.10
2023-12-28T03:28:23.011Z,11.10
2023-12-28T03:38:25.093Z,11.10
2023-12-28T03:48:28.574Z,11.30
2023-12-28T03:58:30.751Z,11.30
2023-12-28T04:08:34.176Z,11.20
2023-12-28T04:18:36.287Z,11.20
2023-12-28T04:28:40.602Z,11.30
2023-12-28T04:38:42.553Z,11.50
2023-12-28T04:48:48.129Z,11.50
2023-12-28T04:58:50.240Z,11.50
2023-12-28T05:08:53.574Z,11.60
2023-12-28T05:18:55.666Z,11.40
2023-12-28T05:29:01.832Z,11.30
2023-12-28T05:39:03.872Z,11.30
2023-12-28T05:49:07.318Z,11.30
2023-12-28T05:59:09.360Z,11.40
2023-12-28T06:09:12.713Z,11.50
2023-12-28T06:19:15.010Z,11.40
2023-12-28T06:29:18.384Z,11.30
2023-12-28T06:39:20.410Z,10.90
2023-12-28T06:49:23.847Z,10.50
2023-12-28T06:59:25.860Z,10.40
2023-12-28T07:09:29.225Z,10.40
2023-12-28T07:19:31.366Z,10.40
2023-12-28T07:29:34.833Z,10.50
2023-12-28T07:39:36.864Z,10.60
2023-12-28T07:49:40.449Z,10.50
2023-12-28T07:59:45.498Z,10.50
2023-12-28T08:09:48.976Z,10.50
2023-12-28T08:19:51.201Z,10.50
2023-12-28T08:29:54.648Z,10.50
2023-12-28T08:39:56.697Z,10.40
2023-12-28T08:50:00.355Z,10.50
2023-12-28T09:00:02.601Z,10.70
2023-12-28T09:10:06.639Z,10.70
2023-12-28T09:20:09.548Z,10.90
2023-12-28T09:30:13.651Z,11.20
2023-12-28T09:40:15.944Z,11.30
2023-12-28T09:50:19.850Z,11.50
2023-12-28T10:00:21.926Z,11.60
2023-12-28T10:10:25.381Z,11.70
2023-12-28T10:20:28.049Z,12.00
2023-12-28T10:30:32.145Z,12.50
2023-12-28T10:40:34.635Z,12.60
2023-12-28T10:50:40.551Z,12.40
2023-12-28T11:00:48.563Z,12.70
2023-12-28T11:10:52.819Z,12.20
2023-12-28T11:20:55.307Z,12.40
2023-12-28T11:30:59.278Z,12.80
2023-12-28T11:41:05.375Z,12.80
2023-12-28T11:51:08.726Z,12.70
2023-12-28T12:01:10.810Z,12.70
2023-12-28T12:11:14.343Z,12.30
2023-12-28T12:21:18.693Z,12.10
2023-12-28T12:31:22.603Z,12.10
2023-12-28T12:41:24.702Z,12.10
2023-12-28T12:51:28.411Z,12.00
2023-12-28T13:01:30.648Z,12.20
2023-12-28T13:11:34.502Z,12.30
2023-12-28T13:21:37.724Z,12.30
2023-12-28T13:31:41.471Z,12.30
2023-12-28T13:41:45.361Z,12.20
2023-12-28T13:51:51.552Z,12.20
2023-12-28T14:01:53.811Z,12.20
2023-12-28T14:11:57.317Z,12.10
2023-12-28T14:21:59.883Z,12.20
2023-12-28T14:32:10.249Z,12.40
2023-12-28T14:42:12.283Z,12.30
2023-12-28T14:52:15.772Z,12.20
2023-12-28T15:02:18.033Z,12.10
2023-12-28T15:12:22.166Z,12.00
2023-12-28T15:22:24.814Z,11.80
2023-12-28T15:32:31.699Z,11.60
2023-12-28T15:42:33.764Z,11.60
2023-12-28T15:52:37.483Z,11.60
2023-12-28T16:02:39.527Z,11.60
2023-12-28T16:12:43.082Z,11.70
2023-12-28T16:22:45.637Z,11.70
2023-12-28T16:32:48.987Z,11.60
2023-12-28T16:42:51.053Z,11.40
2023-12-28T16:52:54.926Z,11.30
2023-12-28T17:02:57.259Z,11.50
2023-12-28T17:13:01.568Z,11.20
2023-12-28T17:23:09.885Z,11.30
2023-12-28T17:33:14.275Z,11.20
2023-12-28T17:43:19.884Z,11.20
2023-12-28T17:53:24.089Z,11.00
2023-12-28T18:03:26.353Z,10.80
2023-12-28T18:13:29.864Z,10.70
2023-12-28T18:23:32.309Z,10.70
2023-12-28T18:33:35.866Z,10.70
2023-12-28T18:43:37.991Z,10.80
2023-12-28T18:53:41.326Z,10.80
2023-12-28T19:03:47.331Z,10.80
2023-12-28T19:13:51.680Z,10.80
2023-12-28T19:23:53.677Z,10.70
2023-12-28T19:33:57.294Z,10.70
2023-12-28T19:43:59.392Z,10.70
2023-12-28T19:54:02.730Z,10.70
2023-12-28T20:04:05.016Z,10.80
2023-12-28T20:14:08.671Z,10.80
2023-12-28T20:24:10.748Z,10.70
2023-12-28T20:34:14.196Z,10.60
2023-12-28T20:44:17.664Z,10.60
2023-12-28T20:54:22.709Z,10.70
2023-12-28T21:04:24.921Z,10.70
2023-12-28T21:14:28.448Z,10.80
2023-12-28T21:24:30.519Z,10.90
2023-12-28T21:34:33.942Z,11.00
2023-12-28T21:44:36.313Z,11.00
2023-12-28T21:54:39.859Z,11.10
2023-12-28T22:04:42.027Z,11.10
2023-12-28T22:14:45.474Z,11.20
2023-12-28T22:24:47.478Z,11.10
2023-12-28T22:34:50.926Z,11.00
2023-12-28T22:44:52.922Z,10.90
2023-12-28T22:54:57.100Z,10.80
2023-12-28T23:04:59.092Z,10.60
2023-12-28T23:15:02.525Z,10.50
2023-12-28T23:25:05.122Z,10.40
2023-12-28T23:35:09.459Z,10.30
2023-12-28T23:45:11.777Z,10.30
2023-12-28T23:55:15.357Z,10.20
